• Join FlightAware (Why Join?)
  • Login
  • US Flag 
08:19AM EDT


 

Airport Tracker/Info


-or-


 

Live Flight TrackerFlight Track Log ✈ N81ER ✈ 08-May-2013 ✈ KRDU - KROA

Flight Track Log - Related Links

Times and Time Zones

All times are in EDT time to prevent confusion due to time zone crossing. See the N81ER flight status page for this flight to view local times or setup timezone preferences in your user account.

Time Position Orientation Groundspeed Altitude Reporting Facility
EDT Latitude Longitude Course Direction KTS MPH feet Rate Location/Type
04:31PM 35.8606 -78.8033 260° West 170 196 1,400  Level Washington Center
04:32PM 35.8380 -78.8290 225° Southwest 219 252 3,500 4,440 Climbing FlightAware
04:32PM 35.8260 -78.8450 227° Southwest 215 247 4,900 4,800 Climbing FlightAware
04:32PM 35.8240 -78.8540 255° West 221 254 5,500 3,180 Climbing FlightAware
04:32PM 35.8294 -78.8764 242° Southwest 235 270 6,600 3,960 Climbing Washington Center
04:33PM 35.8430 -78.8880 305° West 243 280 7,500 1,860 Climbing FlightAware
04:33PM 35.8640 -78.9140 315° West 244 281 7,800 600 Climbing FlightAware
04:33PM 35.8778 -78.9372 314° West 270 311 8,000 1,500 Climbing Washington Center
04:34PM 35.9242 -78.9906 317° Northwest 237 273 9,600 1,020 Climbing Washington Center
04:35PM 35.9706 -79.0517 313° West 245 282 10,000 300 Climbing Washington Center
04:35PM 35.9844 -79.0728 309° West 255 293 10,000  Level Washington Center
04:36PM 35.8428 -79.1337 260° West  Level FlightAware Approximate
04:36PM 36.0228 -79.1208 315° West 292 336 10,000  Level Washington Center
04:37PM 36.0731 -79.1847 314° West 300 345 10,000  Level Washington Center
04:38PM 36.1311 -79.2619 313° West 300 345 10,000  Level Washington Center
04:39PM 36.1792 -79.3283 312° West 295 339 10,000  Level Washington Center
04:40PM 36.2392 -79.4086 313° West 290 334 10,000  Level Washington Center
04:41PM 36.2892 -79.4728 314° West 290 334 10,000  Level Washington Center
04:42PM 36.3472 -79.5531 312° West 290 334 10,000  Level Washington Center
04:43PM 36.3972 -79.6175 343° North 290 334 10,000  Level Washington Center
04:44PM 36.4132 -79.5948 343° North  Level FlightAware Approximate
04:44PM 36.4511 -79.6875 314° West 290 334 10,000  Level Washington Center
04:45PM 36.5050 -79.7600 313° West 285 328 10,000  Level Washington Center
04:46PM 36.5647 -79.8408 313° West 285 328 10,000  Level Washington Center
04:47PM 36.6164 -79.9136 312° West 285 328 10,000  Level Washington Center
04:48PM 36.6700 -79.9839 314° West 285 328 10,000  Level Washington Center
04:50PM 36.7911 -80.0997 323° Northwest 280 322 10,000 -720 Level Washington Center
04:51PM 36.8608 -80.1272 342° North 274 315 8,000 -1,740 Descending Washington Center
04:52PM 36.9244 -80.1542 341° North 261 300 6,500 -1,020 Descending Washington Center
04:53PM 36.9903 -80.1817 342° North 250 288 6,000 -300 Descending Washington Center
04:54PM 37.0622 -80.2092 343° North 245 282 6,000 -360 Level Washington Center
04:55PM 37.1281 -80.2367 342° North 245 282 5,300 -420 Descending Washington Center
04:56PM 37.1939 -80.2589 345° North 245 282 5,200 -120 Descending Washington Center